Terminal Aerodrome Forecast
Issued by NWS

Current Version | Previous Version | Graphics & Text | Print | Product List | Glossary On
Versions: 1 2 3 4 5 6 7 8 9 10 11 12 13 14 15 16 17 18 19 20 21 22 23 24 25 26 27 28 29 30 31
000
FTUS41 KRNK 131720
TAFLWB
TAF
KLWB 131720Z 1318/1418 30003KT P6SM SCT015 OVC080
     FM132300 VRB03KT P6SM -RA OVC040
     FM140200 03003KT 6SM -RADZ OVC025
     FM141000 04003KT 3SM -FZRADZ OVC012=

USA.gov is the U.S. government's official web portal to all federal, state and local government web resources and services.